Time;durP1;ratioP1;P1;durP2;ratioP2;P2;SDS_P1;SDS_P2;PMS_P1;PMS_P2;Temp;Humidity;BMP_temperature;BMP_pressure;BME280_temperature;BME280_humidity;BME280_pressure;Samples;Min_cycle;Max_cycle;Signal;HPM_P1;HPM_P2
2022/02/23 00:02:07;;;;;;;1.98;1.35;;;6.70;99.90;;;;;;5069198;28;20593;-75
2022/02/23 00:04:34;;;;;;;1.98;1.17;;;6.70;99.90;;;;;;5069423;28;20250;-75
2022/02/23 00:07:01;;;;;;;1.40;1.10;;;6.70;99.90;;;;;;5068731;28;20262;-75
2022/02/23 00:09:29;;;;;;;2.58;1.30;;;6.70;99.90;;;;;;5069841;28;20200;-75
2022/02/23 00:11:56;;;;;;;2.40;1.30;;;6.70;99.90;;;;;;5069891;28;20208;-75
2022/02/23 00:14:22;;;;;;;1.85;1.42;;;6.70;99.90;;;;;;5069107;28;20224;-75
2022/02/23 00:16:49;;;;;;;3.72;1.60;;;6.70;99.90;;;;;;5069088;28;20216;-75
2022/02/23 00:19:16;;;;;;;2.38;1.40;;;6.70;99.90;;;;;;5068906;28;20208;-75
2022/02/23 00:21:43;;;;;;;2.78;1.38;;;6.70;99.90;;;;;;5069730;28;20201;-75
2022/02/23 00:24:09;;;;;;;2.10;1.25;;;6.80;99.90;;;;;;5068971;28;20209;-76
2022/02/23 00:26:37;;;;;;;2.38;1.30;;;6.70;99.90;;;;;;5069139;28;20200;-75
2022/02/23 00:29:04;;;;;;;2.25;1.30;;;6.70;99.90;;;;;;5069987;28;20200;-75
2022/02/23 00:31:31;;;;;;;2.05;1.10;;;6.60;99.90;;;;;;5142084;22;20234;-74
2022/02/23 00:33:58;;;;;;;2.42;1.70;;;6.70;99.90;;;;;;5092128;28;20219;-76
2022/02/23 00:36:25;;;;;;;2.08;1.00;;;6.60;99.90;;;;;;5069390;28;20207;-76
2022/02/23 00:38:51;;;;;;;4.32;1.30;;;6.60;99.90;;;;;;5069083;28;20207;-76
2022/02/23 00:41:19;;;;;;;2.35;1.20;;;6.60;99.90;;;;;;5069728;28;20582;-75
2022/02/23 00:43:47;;;;;;;1.83;1.17;;;6.60;99.90;;;;;;5067816;28;20640;-76
2022/02/23 00:46:14;;;;;;;1.70;1.23;;;6.50;99.90;;;;;;5069318;28;20711;-76
2022/02/23 00:48:41;;;;;;;4.50;1.55;;;6.50;99.90;;;;;;5069314;28;20204;-77
2022/02/23 00:51:08;;;;;;;1.85;1.20;;;6.50;99.90;;;;;;5069360;28;20204;-76
2022/02/23 00:53:35;;;;;;;1.60;1.10;;;6.50;99.90;;;;;;5068904;28;20253;-77
2022/02/23 00:56:01;;;;;;;2.28;1.33;;;6.50;99.90;;;;;;5068207;28;20228;-77
2022/02/23 00:58:28;;;;;;;2.45;1.60;;;6.50;99.90;;;;;;5069185;28;20204;-76
2022/02/23 01:00:56;;;;;;;1.02;0.93;;;6.60;99.90;;;;;;5068550;28;20204;-76
2022/02/23 01:03:24;;;;;;;2.13;1.40;;;6.60;99.90;;;;;;5115723;22;20200;-91
2022/02/23 01:05:51;;;;;;;1.30;1.20;;;6.60;99.90;;;;;;5095575;28;20283;-91
2022/02/23 01:11:37;;;;;;;3.28;1.30;;;6.60;99.90;;;;;;5099442;28;20283;-92
2022/02/23 01:35:12;;;;;;;1.20;1.10;;;6.60;99.90;;;;;;5097666;28;20262;-92
2022/02/23 01:40:56;;;;;;;2.65;1.27;;;6.60;99.90;;;;;;5096711;28;20251;-92
2022/02/23 01:43:35;;;;;;;1.50;1.20;;;6.60;99.90;;;;;;5100909;28;20203;-92
2022/02/23 01:48:54;;;;;;;2.78;1.30;;;6.60;99.90;;;;;;5099006;28;20227;-92
2022/02/23 01:54:43;;;;;;;1.45;1.33;;;6.70;99.90;;;;;;5098500;28;20225;-92
2022/02/23 01:57:34;;;;;;;1.40;1.20;;;6.60;99.90;;;;;;5100567;28;20210;-92
2022/02/23 02:00:29;;;;;;;2.00;1.77;;;6.60;99.90;;;;;;5099762;28;20200;-92
2022/02/23 02:06:06;;;;;;;1.90;1.58;;;6.60;99.90;;;;;;5098179;28;20187;-92
2022/02/23 02:08:54;;;;;;;4.28;1.10;;;6.70;99.90;;;;;;5108535;22;20268;-74
2022/02/23 02:11:21;;;;;;;2.33;1.15;;;6.30;99.90;;;;;;5092901;28;20223;-73
2022/02/23 02:13:48;;;;;;;2.30;1.10;;;6.00;99.90;;;;;;5092790;28;20215;-74
2022/02/23 02:16:14;;;;;;;3.17;1.30;;;5.80;99.90;;;;;;5071878;28;20223;-76
2022/02/23 02:18:41;;;;;;;3.45;1.30;;;5.60;99.90;;;;;;5072829;28;20204;-76
2022/02/23 02:21:08;;;;;;;1.88;1.00;;;5.50;99.90;;;;;;5072394;28;20204;-74
2022/02/23 02:23:36;;;;;;;4.22;1.30;;;5.40;99.90;;;;;;5072277;28;20216;-76
2022/02/23 02:26:03;;;;;;;4.05;1.40;;;5.20;99.90;;;;;;5072427;28;20217;-76
2022/02/23 02:28:30;;;;;;;2.88;1.30;;;5.10;99.90;;;;;;5072388;28;20209;-76
2022/02/23 02:30:56;;;;;;;3.05;1.80;;;5.00;99.90;;;;;;5072720;28;20556;-75
2022/02/23 02:33:23;;;;;;;2.33;1.38;;;4.90;99.90;;;;;;5071617;28;20207;-76
2022/02/23 02:35:50;;;;;;;4.68;1.67;;;4.90;99.90;;;;;;5072394;28;20707;-75
2022/02/23 02:38:17;;;;;;;3.90;1.45;;;4.90;99.90;;;;;;5072028;28;20208;-76
2022/02/23 02:40:45;;;;;;;2.25;1.40;;;4.90;99.90;;;;;;5072617;28;20252;-75
2022/02/23 02:43:11;;;;;;;2.55;1.65;;;4.90;99.90;;;;;;5071880;28;20204;-74
2022/02/23 02:45:38;;;;;;;3.13;1.50;;;4.80;99.90;;;;;;5072042;28;20274;-75
2022/02/23 02:48:05;;;;;;;3.47;1.42;;;4.80;99.90;;;;;;5072362;28;20207;-76
2022/02/23 02:50:32;;;;;;;9.82;2.38;;;4.80;99.90;;;;;;5072042;28;20239;-76
2022/02/23 02:52:59;;;;;;;3.63;2.08;;;4.90;99.90;;;;;;5071588;28;20215;-76
2022/02/23 02:55:26;;;;;;;5.82;2.10;;;4.90;99.90;;;;;;5071549;28;20233;-75
2022/02/23 02:57:54;;;;;;;3.80;2.00;;;4.90;99.90;;;;;;5071987;28;20582;-75
2022/02/23 03:00:21;;;;;;;5.93;2.67;;;4.80;99.90;;;;;;5071940;28;20197;-75
2022/02/23 03:02:48;;;;;;;5.28;2.40;;;4.90;99.90;;;;;;5071394;28;20197;-75
2022/02/23 03:05:14;;;;;;;4.78;2.42;;;4.90;99.90;;;;;;5071780;28;20292;-76
2022/02/23 03:07:41;;;;;;;5.57;2.30;;;4.90;99.90;;;;;;5071694;28;20209;-74
2022/02/23 03:10:09;;;;;;;3.90;2.10;;;5.00;99.90;;;;;;5071847;28;20200;-76
2022/02/23 03:12:36;;;;;;;3.70;1.85;;;5.00;99.90;;;;;;5073855;28;20200;-73
2022/02/23 03:15:04;;;;;;;4.63;1.90;;;5.00;99.90;;;;;;5073507;28;20691;-76
2022/02/23 03:17:31;;;;;;;2.65;1.42;;;4.90;99.90;;;;;;5072128;28;20197;-76
2022/02/23 03:19:58;;;;;;;4.60;2.25;;;5.00;99.90;;;;;;5072017;28;20546;-73
2022/02/23 03:22:25;;;;;;;4.15;1.95;;;4.90;99.90;;;;;;5071636;28;20200;-76
2022/02/23 03:24:51;;;;;;;11.57;2.10;;;4.90;99.90;;;;;;5071378;28;20568;-75
2022/02/23 03:27:18;;;;;;;3.97;1.70;;;4.90;99.90;;;;;;5070482;28;20204;-76
2022/02/23 03:29:45;;;;;;;5.53;1.83;;;4.90;99.90;;;;;;5071090;28;20903;-73
2022/02/23 03:32:13;;;;;;;8.48;2.13;;;4.90;99.90;;;;;;5071208;28;20201;-75
2022/02/23 03:34:40;;;;;;;4.20;2.42;;;4.90;99.90;;;;;;5070901;28;20259;-75
2022/02/23 03:37:07;;;;;;;3.58;1.73;;;4.90;99.90;;;;;;5071337;28;20675;-76
2022/02/23 03:39:34;;;;;;;5.60;2.20;;;4.80;99.90;;;;;;5071531;28;20204;-74
2022/02/23 03:42:00;;;;;;;7.60;2.35;;;4.80;99.90;;;;;;5071228;28;20207;-75
2022/02/23 03:44:27;;;;;;;9.02;3.38;;;4.80;99.90;;;;;;5070771;28;20217;-75
2022/02/23 03:46:54;;;;;;;5.07;2.55;;;4.70;99.90;;;;;;5071185;28;20211;-73
2022/02/23 03:49:22;;;;;;;6.63;1.85;;;4.60;99.90;;;;;;5071038;28;20203;-76
2022/02/23 03:51:49;;;;;;;4.57;1.65;;;4.50;99.90;;;;;;5071293;28;20578;-76
2022/02/23 03:54:16;;;;;;;4.10;1.65;;;4.40;99.90;;;;;;5069751;28;20231;-76
2022/02/23 03:56:43;;;;;;;6.65;1.73;;;4.20;99.90;;;;;;5071095;28;20204;-74
2022/02/23 03:59:11;;;;;;;4.00;1.98;;;4.00;99.90;;;;;;5070642;28;20291;-75
2022/02/23 04:01:40;;;;;;;7.63;1.80;;;3.90;99.90;;;;;;5071339;28;20204;-76
2022/02/23 04:04:08;;;;;;;3.85;1.70;;;3.80;99.90;;;;;;5069979;28;20201;-75
2022/02/23 04:06:37;;;;;;;2.55;1.80;;;3.80;99.90;;;;;;5071399;28;20278;-76
2022/02/23 04:09:05;;;;;;;4.57;1.90;;;3.70;99.90;;;;;;5074212;28;20208;-73
2022/02/23 04:11:32;;;;;;;5.97;1.90;;;3.70;99.90;;;;;;5070993;28;20212;-75
2022/02/23 04:13:59;;;;;;;4.90;2.00;;;3.80;99.90;;;;;;5070232;28;20196;-76
2022/02/23 04:16:25;;;;;;;8.07;2.10;;;3.70;99.90;;;;;;5070372;28;20201;-76
2022/02/23 04:18:53;;;;;;;5.15;2.03;;;3.70;99.90;;;;;;5070783;28;20211;-74
2022/02/23 04:21:20;;;;;;;3.35;1.60;;;3.60;99.90;;;;;;5070534;28;20211;-75
2022/02/23 04:23:49;;;;;;;2.20;1.83;;;3.60;99.90;;;;;;5069894;28;20207;-76
2022/02/23 04:26:17;;;;;;;7.20;1.95;;;3.60;99.90;;;;;;5070809;28;20220;-76
2022/02/23 04:28:44;;;;;;;6.07;2.10;;;3.60;99.90;;;;;;5070336;28;20262;-74
2022/02/23 04:31:10;;;;;;;4.95;2.42;;;3.50;99.90;;;;;;5070020;28;20199;-75
2022/02/23 04:33:37;;;;;;;3.78;1.98;;;3.50;99.90;;;;;;5080471;28;20207;-75
2022/02/23 04:36:06;;;;;;;7.53;2.88;;;3.60;99.90;;;;;;5078355;28;20223;-75
2022/02/23 04:38:33;;;;;;;4.50;2.50;;;3.60;99.90;;;;;;5082498;28;20591;-75
2022/02/23 04:41:01;;;;;;;6.28;3.00;;;3.70;99.90;;;;;;5085420;28;20214;-73
2022/02/23 04:43:32;;;;;;;7.05;2.30;;;3.70;99.90;;;;;;5086329;28;20196;-75
2022/02/23 04:46:00;;;;;;;4.60;2.50;;;3.70;99.90;;;;;;5085907;28;20634;-75
2022/02/23 04:48:27;;;;;;;5.53;2.00;;;3.70;99.90;;;;;;5084682;28;20192;-74
2022/02/23 04:50:53;;;;;;;4.72;2.25;;;3.80;99.90;;;;;;5086545;28;20202;-76
2022/02/23 04:53:20;;;;;;;5.05;2.30;;;3.80;99.90;;;;;;5085676;28;20206;-75
2022/02/23 04:55:47;;;;;;;5.13;2.28;;;3.90;99.90;;;;;;5085207;28;20223;-74
2022/02/23 04:58:15;;;;;;;6.78;2.38;;;4.00;99.90;;;;;;5083514;28;20543;-78
2022/02/23 05:00:42;;;;;;;4.95;1.90;;;4.00;99.90;;;;;;5087430;28;20200;-76
2022/02/23 05:03:09;;;;;;;7.38;2.40;;;4.00;99.90;;;;;;5083815;28;20187;-77
2022/02/23 05:05:36;;;;;;;6.65;1.83;;;4.00;99.90;;;;;;5081930;28;20208;-78
2022/02/23 05:08:03;;;;;;;7.78;2.20;;;4.00;99.90;;;;;;5076572;28;20254;-76
2022/02/23 05:10:30;;;;;;;3.75;1.80;;;4.00;99.90;;;;;;5076136;28;20199;-77
2022/02/23 05:12:57;;;;;;;3.95;2.33;;;4.00;99.90;;;;;;5081264;28;20196;-78
2022/02/23 05:15:25;;;;;;;6.38;2.40;;;3.80;99.90;;;;;;5089438;28;20219;-77
2022/02/23 05:17:52;;;;;;;4.30;2.47;;;3.70;99.90;;;;;;5085095;28;20593;-77
2022/02/23 05:20:19;;;;;;;3.30;1.80;;;3.60;99.90;;;;;;5085099;28;20196;-77
2022/02/23 05:22:48;;;;;;;4.20;2.03;;;3.50;99.90;;;;;;5086797;28;20666;-75
2022/02/23 05:25:15;;;;;;;5.25;2.30;;;3.40;99.90;;;;;;5090444;28;20651;-75
2022/02/23 05:27:42;;;;;;;6.70;1.90;;;3.40;99.90;;;;;;5086768;28;20287;-75
2022/02/23 05:30:10;;;;;;;5.45;2.38;;;3.30;99.90;;;;;;5094759;28;20203;-75
2022/02/23 05:32:39;;;;;;;5.20;2.10;;;3.20;99.90;;;;;;5098086;28;20212;-75
2022/02/23 05:35:06;;;;;;;2.80;1.73;;;3.20;99.90;;;;;;5099338;28;20598;-75
2022/02/23 05:37:33;;;;;;;4.40;2.78;;;3.20;99.90;;;;;;5099662;28;20203;-75
2022/02/23 05:40:00;;;;;;;4.25;2.00;;;3.30;99.90;;;;;;5099329;28;20200;-75
2022/02/23 05:42:27;;;;;;;9.07;2.95;;;3.20;99.90;;;;;;5098930;28;20211;-75
2022/02/23 05:44:53;;;;;;;5.25;2.35;;;3.20;99.90;;;;;;5098738;28;20235;-75
2022/02/23 05:47:20;;;;;;;6.20;3.35;;;3.20;99.90;;;;;;5100018;28;20200;-75
2022/02/23 05:49:48;;;;;;;9.02;2.50;;;3.20;99.90;;;;;;5097934;28;20196;-75
2022/02/23 05:52:16;;;;;;;9.20;2.55;;;3.20;99.90;;;;;;5097054;28;20200;-75
2022/02/23 05:54:43;;;;;;;7.55;2.60;;;3.20;99.90;;;;;;5097990;28;20227;-74
2022/02/23 05:57:10;;;;;;;5.57;2.15;;;3.20;99.90;;;;;;5102402;28;20196;-75
2022/02/23 05:59:37;;;;;;;6.95;2.42;;;3.10;99.90;;;;;;5104352;28;20202;-75
2022/02/23 06:02:04;;;;;;;3.05;2.13;;;3.10;99.90;;;;;;5103865;28;20579;-75
2022/02/23 06:04:31;;;;;;;7.00;2.50;;;3.10;99.90;;;;;;5101680;28;20223;-75
2022/02/23 06:06:59;;;;;;;5.40;2.70;;;3.10;99.90;;;;;;5101019;28;20458;-75
2022/02/23 06:09:25;;;;;;;5.57;2.78;;;3.10;99.90;;;;;;5099274;28;20204;-75
2022/02/23 06:11:52;;;;;;;4.25;2.50;;;3.00;99.90;;;;;;5097617;28;20210;-75
2022/02/23 06:14:19;;;;;;;5.15;2.83;;;3.00;99.90;;;;;;5094798;28;20868;-75
2022/02/23 06:16:46;;;;;;;5.57;2.28;;;3.00;99.90;;;;;;5082814;28;20218;-75
2022/02/23 06:19:13;;;;;;;10.65;3.28;;;3.00;99.90;;;;;;5082623;28;20192;-75
2022/02/23 06:21:39;;;;;;;4.47;2.85;;;2.90;99.90;;;;;;5097042;28;20211;-75
2022/02/23 06:24:08;;;;;;;4.15;2.42;;;2.90;99.90;;;;;;5087622;28;20203;-75
2022/02/23 06:26:35;;;;;;;4.78;2.60;;;3.00;99.90;;;;;;5091103;28;20200;-75
2022/02/23 06:29:02;;;;;;;6.63;3.17;;;3.00;99.90;;;;;;5096659;28;20196;-75
2022/02/23 06:31:28;;;;;;;3.55;2.50;;;3.00;99.90;;;;;;5097391;28;20203;-75
2022/02/23 06:33:56;;;;;;;6.78;2.63;;;3.00;99.90;;;;;;5095802;28;20211;-75
2022/02/23 06:36:24;;;;;;;4.15;2.92;;;3.00;99.90;;;;;;5095829;28;20224;-75
2022/02/23 06:38:54;;;;;;;4.80;2.50;;;3.00;99.90;;;;;;5095998;28;20321;-75
2022/02/23 06:41:24;;;;;;;4.18;2.65;;;3.00;99.90;;;;;;5097035;28;20261;-74
2022/02/23 06:43:52;;;;;;;3.72;2.30;;;3.10;99.90;;;;;;5096369;28;20204;-74
2022/02/23 06:46:19;;;;;;;2.53;2.22;;;3.00;99.90;;;;;;5096467;28;20223;-75
2022/02/23 06:48:47;;;;;;;4.85;2.60;;;3.00;99.90;;;;;;5096297;28;20910;-75
2022/02/23 06:51:18;;;;;;;4.25;2.55;;;3.00;99.90;;;;;;5097045;28;20659;-75
2022/02/23 06:53:45;;;;;;;4.10;3.20;;;3.00;99.90;;;;;;5096014;28;20227;-75
2022/02/23 06:56:12;;;;;;;3.53;1.85;;;2.90;99.90;;;;;;5095995;28;20220;-75
2022/02/23 06:58:46;;;;;;;6.82;2.65;;;2.90;99.90;;;;;;5096138;28;20589;-75
2022/02/23 07:01:16;;;;;;;3.05;2.65;;;2.90;99.90;;;;;;5096337;28;20206;-75
2022/02/23 07:06:20;;;;;;;3.38;2.30;;;2.90;99.90;;;;;;5089391;28;20211;-75
2022/02/23 07:08:50;;;;;;;4.22;2.70;;;2.90;99.90;;;;;;5091002;28;20573;-74
2022/02/23 07:11:18;;;;;;;6.05;2.40;;;3.00;99.90;;;;;;5091730;28;20199;-75
2022/02/23 07:13:47;;;;;;;3.13;2.33;;;3.00;99.90;;;;;;5091720;28;20206;-76
2022/02/23 07:16:15;;;;;;;4.53;2.20;;;3.00;99.90;;;;;;5071791;28;20229;-75
2022/02/23 07:18:42;;;;;;;4.30;2.40;;;3.00;99.90;;;;;;5071829;28;20206;-75
2022/02/23 07:21:09;;;;;;;3.58;3.20;;;3.00;99.90;;;;;;5071573;28;20220;-76
2022/02/23 07:23:36;;;;;;;6.93;2.92;;;3.10;99.90;;;;;;5070913;28;20212;-76
2022/02/23 07:26:02;;;;;;;3.47;2.35;;;3.20;99.90;;;;;;5070846;28;20223;-76
2022/02/23 07:28:29;;;;;;;4.50;3.30;;;3.40;99.90;;;;;;5071094;28;20208;-76
2022/02/23 07:30:58;;;;;;;2.70;2.47;;;4.20;99.90;;;;;;5071830;28;20220;-76
2022/02/23 07:33:24;;;;;;;3.42;2.53;;;5.40;99.90;;;;;;5070648;28;20212;-76
2022/02/23 07:35:52;;;;;;;6.03;2.00;;;6.60;99.90;;;;;;5071459;28;20225;-75
2022/02/23 07:38:19;;;;;;;2.85;1.60;;;8.00;99.90;;;;;;5071935;28;20208;-76
2022/02/23 07:40:46;;;;;;;6.13;3.55;;;9.40;99.90;;;;;;5072007;28;20269;-76
2022/02/23 07:43:13;;;;;;;4.45;2.70;;;10.50;99.90;;;;;;5070916;28;20212;-75
2022/02/23 07:45:40;;;;;;;3.40;2.10;;;11.10;99.90;;;;;;5071351;28;20224;-76
2022/02/23 07:48:09;;;;;;;2.05;1.60;;;11.70;99.90;;;;;;5071287;28;20201;-76
2022/02/23 07:50:37;;;;;;;3.75;1.80;;;11.90;99.90;;;;;;5071129;28;20204;-76
2022/02/23 07:53:04;;;;;;;2.05;1.30;;;11.80;99.90;;;;;;5070732;28;20294;-76
2022/02/23 07:55:31;;;;;;;4.28;1.70;;;11.80;99.90;;;;;;5071501;28;20224;-77
2022/02/23 07:57:58;;;;;;;4.60;1.88;;;12.40;99.90;;;;;;5071152;28;20200;-77
2022/02/23 08:00:27;;;;;;;2.90;2.05;;;13.10;99.90;;;;;;5070932;28;20300;-78
2022/02/23 08:02:54;;;;;;;3.70;1.70;;;13.80;99.90;;;;;;5068568;28;20232;-79
2022/02/23 08:05:24;;;;;;;2.97;1.70;;;14.20;99.90;;;;;;5068827;28;20665;-77
2022/02/23 08:07:52;;;;;;;2.27;1.60;;;14.50;99.90;;;;;;5069016;28;20473;-77
2022/02/23 08:10:19;;;;;;;3.03;1.30;;;14.90;99.90;;;;;;5069023;28;20554;-77
2022/02/23 08:12:47;;;;;;;4.23;1.60;;;15.30;99.50;;;;;;5068588;28;20467;-79
2022/02/23 08:20:45;;;;;;;2.33;1.50;;;16.50;99.10;;;;;;5069253;28;20822;-78
2022/02/23 08:23:13;;;;;;;5.13;1.63;;;16.60;98.20;;;;;;5080135;28;20484;-77
2022/02/23 08:25:42;;;;;;;2.03;1.70;;;16.50;97.60;;;;;;5088947;28;20501;-77
2022/02/23 08:28:10;;;;;;;2.90;1.47;;;16.50;97.70;;;;;;5088996;28;20809;-77
2022/02/23 08:30:37;;;;;;;3.70;1.40;;;16.90;97.20;;;;;;5089337;28;20552;-76
2022/02/23 08:33:04;;;;;;;2.40;1.43;;;17.40;96.60;;;;;;5087998;28;20469;-77
2022/02/23 08:35:31;;;;;;;2.50;1.73;;;17.50;96.30;;;;;;5089485;28;20516;-78
2022/02/23 08:38:00;;;;;;;3.27;1.33;;;17.30;96.40;;;;;;5088850;28;20458;-78
2022/02/23 08:40:27;;;;;;;3.33;1.63;;;17.20;95.90;;;;;;5088810;28;20823;-78
2022/02/23 08:42:55;;;;;;;3.20;2.27;;;17.20;96.30;;;;;;5088391;28;20489;-77
2022/02/23 08:45:21;;;;;;;3.10;1.40;;;17.30;95.70;;;;;;5088712;28;20482;-76
2022/02/23 08:47:49;;;;;;;3.90;1.80;;;17.30;95.60;;;;;;5088478;28;20468;-77
2022/02/23 08:50:16;;;;;;;3.50;1.67;;;17.00;96.30;;;;;;5088977;28;20488;-76
2022/02/23 08:52:42;;;;;;;3.07;1.30;;;17.40;95.80;;;;;;5088598;28;20472;-77
2022/02/23 08:55:12;;;;;;;3.80;1.40;;;17.40;95.30;;;;;;5087948;28;20489;-77
2022/02/23 08:57:39;;;;;;;5.50;2.00;;;17.10;95.90;;;;;;5088809;28;20490;-78
2022/02/23 09:00:08;;;;;;;3.77;1.53;;;16.80;95.60;;;;;;5089094;28;20462;-78
2022/02/23 09:02:34;;;;;;;2.70;1.47;;;17.20;95.70;;;;;;5075628;28;20776;-77
2022/02/23 09:05:01;;;;;;;8.33;2.20;;;17.70;95.20;;;;;;5069151;28;20490;-77
2022/02/23 09:07:28;;;;;;;4.13;1.77;;;18.10;93.70;;;;;;5071997;28;20459;-77
2022/02/23 09:09:55;;;;;;;2.73;1.80;;;17.30;94.00;;;;;;5069399;28;20466;-75
2022/02/23 09:12:25;;;;;;;2.80;1.87;;;16.60;95.20;;;;;;5069709;28;20442;-76
2022/02/23 09:15:12;;;;;;;3.97;1.97;;;15.80;96.70;;;;;;5076909;28;20469;-79
2022/02/23 09:17:51;;;;;;;5.80;2.10;;;16.40;96.30;;;;;;5088305;28;20635;-77
2022/02/23 09:20:27;;;;;;;7.07;2.03;;;17.10;94.80;;;;;;5076574;28;20489;-77
2022/02/23 09:23:08;;;;;;;2.03;1.53;;;17.30;93.70;;;;;;5087744;28;20454;-77
2022/02/23 09:25:34;;;;;;;2.40;1.53;;;17.20;94.20;;;;;;5091087;28;20473;-77
2022/02/23 09:28:03;;;;;;;3.93;1.93;;;17.50;93.80;;;;;;5081287;28;20454;-77
2022/02/23 09:30:30;;;;;;;3.13;1.50;;;18.20;93.00;;;;;;5072444;28;20454;-77
2022/02/23 09:32:57;;;;;;;4.03;1.77;;;18.40;92.90;;;;;;5071119;28;20458;-77
2022/02/23 09:35:25;;;;;;;4.23;1.70;;;18.50;92.50;;;;;;5071505;28;20493;-77
2022/02/23 09:37:53;;;;;;;3.50;1.83;;;18.10;91.90;;;;;;5072028;28;20984;-76
2022/02/23 09:40:20;;;;;;;4.43;2.00;;;18.40;93.10;;;;;;5072110;28;20450;-76
2022/02/23 09:42:47;;;;;;;3.87;2.63;;;18.40;92.30;;;;;;5071478;28;20768;-77
2022/02/23 09:45:16;;;;;;;2.43;1.60;;;19.10;91.50;;;;;;5071482;28;21011;-77
2022/02/23 09:47:43;;;;;;;4.50;1.97;;;20.20;91.60;;;;;;5072207;28;20545;-76
2022/02/23 09:50:18;;;;;;;3.70;1.70;;;21.40;90.00;;;;;;5071755;28;20466;-77
2022/02/23 09:52:45;;;;;;;5.37;2.17;;;21.90;86.40;;;;;;5077013;28;20489;-77
2022/02/23 09:55:13;;;;;;;4.23;1.80;;;22.90;85.50;;;;;;5092145;28;20473;-77
2022/02/23 09:57:40;;;;;;;3.63;1.80;;;23.20;85.10;;;;;;5092123;28;20492;-77
2022/02/23 10:00:09;;;;;;;4.20;1.80;;;23.50;83.10;;;;;;5092567;28;20472;-77
2022/02/23 10:02:39;;;;;;;3.03;1.60;;;23.80;84.80;;;;;;5091232;28;20465;-77
2022/02/23 10:05:09;;;;;;;5.50;2.67;;;23.30;83.20;;;;;;5092248;28;20495;-77
2022/02/23 10:07:40;;;;;;;3.77;1.70;;;22.40;81.60;;;;;;5092583;28;20802;-77
2022/02/23 10:10:09;;;;;;;2.97;1.53;;;22.60;83.50;;;;;;5093450;28;20459;-77
2022/02/23 10:12:37;;;;;;;4.53;1.70;;;22.60;85.40;;;;;;5091748;28;20458;-77
2022/02/23 10:15:07;;;;;;;5.53;1.70;;;22.80;83.10;;;;;;5077202;28;20514;-76
2022/02/23 10:17:40;;;;;;;3.90;1.90;;;23.90;84.20;;;;;;5075028;28;20496;-76
2022/02/23 10:20:21;;;;;;;2.93;1.70;;;24.70;81.20;;;;;;5074604;28;20469;-77
2022/02/23 10:22:49;;;;;;;3.87;1.73;;;23.10;79.40;;;;;;5073997;28;20463;-77
2022/02/23 10:25:22;;;;;;;2.43;1.50;;;22.70;80.20;;;;;;5074252;28;20486;-76
2022/02/23 10:27:49;;;;;;;2.33;1.60;;;22.20;83.90;;;;;;5074810;28;20454;-76
2022/02/23 10:30:28;;;;;;;5.30;1.93;;;21.60;83.30;;;;;;5076049;28;20458;-76
2022/02/23 10:32:57;;;;;;;3.00;1.47;;;21.70;87.00;;;;;;5075195;28;20964;-77
2022/02/23 10:35:28;;;;;;;3.40;1.60;;;22.60;83.20;;;;;;5075265;28;20516;-76
2022/02/23 10:37:55;;;;;;;6.17;2.10;;;23.50;82.40;;;;;;5076196;28;20533;-76
2022/02/23 10:40:23;;;;;;;4.13;2.00;;;23.40;81.70;;;;;;5076009;28;20466;-77
2022/02/23 10:42:50;;;;;;;4.03;2.10;;;23.40;81.40;;;;;;5074819;28;20808;-76
2022/02/23 10:45:18;;;;;;;3.03;2.00;;;23.00;82.00;;;;;;5076042;28;20483;-78
2022/02/23 10:47:48;;;;;;;4.63;1.80;;;24.60;79.40;;;;;;5075148;28;20479;-77
2022/02/23 10:50:23;;;;;;;4.70;1.80;;;25.20;76.30;;;;;;5074387;28;20979;-77
2022/02/23 10:52:55;;;;;;;2.90;1.60;;;25.00;78.50;;;;;;5075760;28;20840;-77
2022/02/23 10:55:24;;;;;;;3.70;1.73;;;25.60;78.60;;;;;;5075440;28;20482;-77
2022/02/23 10:57:55;;;;;;;4.63;2.20;;;25.90;76.80;;;;;;5075793;28;20483;-77
2022/02/23 11:00:24;;;;;;;2.67;1.80;;;26.60;77.80;;;;;;5074194;28;20468;-78
2022/02/23 11:02:55;;;;;;;3.80;2.00;;;25.60;75.60;;;;;;5072923;28;20470;-77
2022/02/23 11:05:24;;;;;;;3.10;1.73;;;25.70;78.00;;;;;;5091687;28;20926;-79
2022/02/23 11:07:52;;;;;;;4.57;1.83;;;26.30;76.50;;;;;;5092523;28;20808;-77
2022/02/23 11:10:20;;;;;;;5.00;2.17;;;25.10;75.70;;;;;;5093178;28;20467;-77
2022/02/23 11:12:48;;;;;;;3.93;2.27;;;24.90;75.90;;;;;;5093147;28;20836;-77
2022/02/23 11:15:19;;;;;;;2.50;1.50;;;25.40;76.80;;;;;;5094376;28;20479;-76
2022/02/23 11:17:47;;;;;;;3.33;2.03;;;25.50;75.50;;;;;;5095539;28;20493;-77
2022/02/23 11:20:18;;;;;;;2.73;1.80;;;24.90;75.80;;;;;;5094599;28;20484;-76
2022/02/23 11:22:53;;;;;;;5.10;2.07;;;22.30;78.30;;;;;;5094640;28;20493;-76
2022/02/23 11:25:20;;;;;;;2.80;1.50;;;19.70;82.00;;;;;;5093162;28;20576;-76
2022/02/23 11:27:50;;;;;;;5.63;2.43;;;18.50;86.80;;;;;;5091636;28;20454;-77
2022/02/23 11:30:19;;;;;;;2.50;1.47;;;18.70;87.50;;;;;;5091437;28;20838;-77
2022/02/23 11:32:46;;;;;;;5.87;2.23;;;19.00;87.00;;;;;;5091395;28;21003;-78
2022/02/23 11:35:13;;;;;;;5.50;2.40;;;20.50;85.80;;;;;;5090669;28;20481;-76
2022/02/23 11:37:41;;;;;;;3.57;1.80;;;21.60;82.70;;;;;;5090001;28;20490;-77
2022/02/23 11:40:10;;;;;;;4.37;2.07;;;21.10;85.20;;;;;;5090834;28;20462;-77
2022/02/23 11:42:38;;;;;;;4.70;2.60;;;22.20;84.60;;;;;;5089735;28;20461;-77
2022/02/23 11:45:13;;;;;;;4.70;2.17;;;23.50;81.50;;;;;;5089825;28;20513;-77
2022/02/23 11:47:46;;;;;;;2.87;1.70;;;24.90;81.00;;;;;;5088630;28;20457;-77
2022/02/23 11:50:19;;;;;;;5.50;1.73;;;25.60;78.30;;;;;;5090057;28;20465;-77
2022/02/23 11:52:47;;;;;;;5.67;2.20;;;25.80;76.10;;;;;;5089710;28;20953;-78
2022/02/23 11:55:17;;;;;;;3.60;1.77;;;26.10;77.40;;;;;;5089703;28;20478;-77
2022/02/23 11:57:48;;;;;;;4.23;2.10;;;26.50;74.00;;;;;;5090354;28;20508;-77
2022/02/23 12:00:17;;;;;;;3.20;2.00;;;25.10;77.20;;;;;;5089646;28;20565;-77
2022/02/23 12:02:57;;;;;;;3.60;2.07;;;23.20;78.30;;;;;;5089578;28;20465;-77
2022/02/23 12:05:35;;;;;;;5.60;2.10;;;21.00;82.10;;;;;;5090015;28;20592;-76
2022/02/23 12:08:03;;;;;;;3.43;2.30;;;20.20;83.40;;;;;;5089379;28;20465;-76
2022/02/23 12:10:32;;;;;;;3.70;2.63;;;20.50;83.30;;;;;;5089703;28;20937;-78
2022/02/23 12:12:59;;;;;;;5.47;2.20;;;20.40;82.10;;;;;;5089873;28;20967;-77
2022/02/23 12:15:32;;;;;;;5.03;2.67;;;19.70;82.80;;;;;;5091117;28;20484;-76
2022/02/23 12:18:01;;;;;;;7.57;2.00;;;19.80;83.50;;;;;;5091337;28;20493;-77
2022/02/23 12:20:53;;;;;;;4.73;2.30;;;19.60;84.60;;;;;;5090976;28;20464;-77
2022/02/23 12:23:39;;;;;;;4.10;2.00;;;18.30;85.20;;;;;;5090511;28;20453;-77
2022/02/23 12:26:37;;;;;;;4.30;2.33;;;17.10;89.40;;;;;;5090330;28;20488;-77
2022/02/23 12:29:07;;;;;;;5.87;2.00;;;16.10;90.60;;;;;;5090724;28;20461;-76
2022/02/23 12:31:34;;;;;;;3.33;1.73;;;16.40;90.20;;;;;;5088918;28;20460;-77
2022/02/23 12:34:05;;;;;;;5.23;1.60;;;18.30;89.00;;;;;;5089014;28;20453;-77
2022/02/23 12:36:41;;;;;;;6.07;2.40;;;20.30;84.20;;;;;;5090074;28;20465;-77
2022/02/23 12:39:12;;;;;;;9.10;2.80;;;21.90;81.90;;;;;;5088792;28;20487;-77
2022/02/23 12:41:42;;;;;;;4.87;2.10;;;22.70;80.90;;;;;;5089440;28;20469;-75
2022/02/23 12:44:11;;;;;;;3.90;2.17;;;23.30;80.00;;;;;;5088054;28;20464;-74
2022/02/23 12:46:41;;;;;;;6.07;1.97;;;23.00;80.00;;;;;;5089135;28;20522;-77
2022/02/23 12:49:09;;;;;;;3.93;1.83;;;23.00;79.50;;;;;;5089028;28;20489;-76
2022/02/23 12:51:37;;;;;;;5.40;2.07;;;22.20;81.10;;;;;;5089799;28;20465;-76
2022/02/23 12:54:07;;;;;;;3.03;1.73;;;22.00;81.10;;;;;;5088474;28;20469;-76
2022/02/23 12:56:37;;;;;;;3.10;1.67;;;22.40;80.00;;;;;;5087879;28;20834;-76
2022/02/23 12:59:07;;;;;;;2.00;1.50;;;23.50;77.00;;;;;;5091835;28;20456;-76
2022/02/23 13:01:36;;;;;;;7.20;2.10;;;24.00;77.50;;;;;;5094451;28;20782;-77
2022/02/23 13:04:05;;;;;;;3.47;1.57;;;23.80;76.40;;;;;;5093410;28;20898;-76
2022/02/23 13:06:34;;;;;;;5.50;2.03;;;24.00;75.00;;;;;;5094309;28;20453;-76
2022/02/23 13:09:05;;;;;;;3.13;1.90;;;24.10;72.60;;;;;;5071405;28;20447;-77
2022/02/23 13:11:34;;;;;;;6.53;1.80;;;21.90;75.20;;;;;;5073614;28;20457;-77
2022/02/23 13:14:13;;;;;;;1.80;1.70;;;20.60;77.10;;;;;;5071946;28;20696;-77
2022/02/23 13:16:43;;;;;;;5.60;1.90;;;19.90;78.10;;;;;;5073519;28;20449;-76
2022/02/23 13:19:13;;;;;;;2.70;1.47;;;19.30;79.40;;;;;;5073430;28;20466;-76
2022/02/23 13:21:49;;;;;;;5.93;1.70;;;19.00;81.90;;;;;;5074460;28;20459;-76
2022/02/23 13:24:19;;;;;;;5.43;2.03;;;19.30;81.20;;;;;;5072698;28;20992;-76
2022/02/23 13:26:48;;;;;;;4.50;1.70;;;20.10;81.20;;;;;;5072679;28;20467;-76
2022/02/23 13:29:19;;;;;;;5.00;1.80;;;20.10;80.10;;;;;;5073661;28;20462;-76
2022/02/23 13:31:49;;;;;;;4.70;1.63;;;20.50;79.50;;;;;;5072938;28;20487;-77
2022/02/23 13:34:34;;;;;;;5.20;2.03;;;21.00;78.50;;;;;;5072484;28;20482;-76
2022/02/23 13:37:22;;;;;;;2.43;1.47;;;21.00;80.10;;;;;;5072482;28;20458;-77
2022/02/23 13:39:52;;;;;;;5.03;2.03;;;22.00;78.70;;;;;;5073263;28;20462;-77
2022/02/23 13:42:30;;;;;;;5.40;2.00;;;22.60;77.60;;;;;;5073519;28;20472;-76
2022/02/23 13:45:07;;;;;;;3.87;1.70;;;23.00;76.80;;;;;;5072437;28;20493;-77
2022/02/23 13:47:34;;;;;;;3.47;2.20;;;23.30;77.10;;;;;;5073337;28;20465;-77